Time;durP1;ratioP1;P1;durP2;ratioP2;P2;SDS_P1;SDS_P2;PMS_P1;PMS_P2;Temp;Humidity;BMP_temperature;BMP_pressure;BME280_temperature;BME280_humidity;BME280_pressure;Samples;Min_cycle;Max_cycle;Signal;HPM_P1;HPM_P2
2023/03/21 00:01:53;;;;;;;17.85;6.45;;;;;;;11.68;100.00;101320.97;5008306;28;20046;-76
2023/03/21 00:04:21;;;;;;;13.43;5.38;;;;;;;11.81;100.00;101299.25;5006359;28;20049;-75
2023/03/21 00:06:48;;;;;;;32.08;9.70;;;;;;;11.78;100.00;101297.28;5006936;28;20164;-75
2023/03/21 00:09:15;;;;;;;12.57;4.60;;;;;;;11.79;100.00;101296.06;5007974;28;20061;-78
2023/03/21 00:11:42;;;;;;;26.92;8.15;;;;;;;11.79;100.00;101290.53;5005866;28;20082;-79
2023/03/21 00:14:13;;;;;;;26.60;7.68;;;;;;;11.77;100.00;101290.91;5005197;28;20050;-74
2023/03/21 00:16:40;;;;;;;28.10;9.35;;;;;;;11.87;100.00;101292.13;5003739;28;20112;-76
2023/03/21 00:19:08;;;;;;;21.95;8.88;;;;;;;11.86;100.00;101293.31;5004395;28;20050;-74
2023/03/21 00:21:37;;;;;;;21.98;7.00;;;;;;;11.83;100.00;101291.34;5003757;28;20115;-79
2023/03/21 00:24:24;;;;;;;28.60;9.25;;;;;;;11.84;100.00;101284.59;5003281;28;20050;-75
2023/03/21 00:26:50;;;;;;;23.95;7.38;;;;;;;11.87;100.00;101287.38;5004043;28;20786;-74
2023/03/21 00:29:17;;;;;;;15.77;5.38;;;;;;;11.76;100.00;101281.03;5009193;28;20144;-76
2023/03/21 00:31:44;;;;;;;22.45;7.72;;;;;;;11.85;100.00;101275.09;5008010;28;20445;-75
2023/03/21 00:34:11;;;;;;;26.92;10.40;;;;;;;11.95;100.00;101274.34;5013076;28;20058;-77
2023/03/21 00:36:38;;;;;;;23.95;7.85;;;;;;;11.82;100.00;101270.34;5015893;28;20068;-78
2023/03/21 00:39:05;;;;;;;24.48;7.13;;;;;;;11.89;100.00;101268.38;5010526;28;20085;-79
2023/03/21 00:41:32;;;;;;;25.42;8.07;;;;;;;11.94;100.00;101273.53;5007154;28;20107;-76
2023/03/21 00:44:14;;;;;;;15.13;4.90;;;;;;;11.84;100.00;101270.72;5004623;28;20064;-75
2023/03/21 00:46:41;;;;;;;27.02;7.80;;;;;;;11.89;100.00;101270.34;5002951;28;20068;-80
2023/03/21 00:49:26;;;;;;;14.23;5.80;;;;;;;11.75;100.00;101250.91;5003788;28;20101;-75
2023/03/21 00:51:53;;;;;;;4.32;2.33;;;;;;;11.87;100.00;101265.22;5001686;28;20157;-78
2023/03/21 00:54:22;;;;;;;23.77;8.13;;;;;;;12.30;100.00;101258.53;5004794;28;20041;-74
2023/03/21 00:56:49;;;;;;;25.02;8.10;;;;;;;12.18;100.00;101247.00;5005464;28;20064;-80
2023/03/21 00:59:16;;;;;;;18.48;7.25;;;;;;;12.58;100.00;101255.75;5003889;28;20065;-75
2023/03/21 01:01:45;;;;;;;15.15;5.55;;;;;;;11.98;100.00;101254.91;5005757;28;20128;-74
2023/03/21 01:04:15;;;;;;;12.88;3.58;;;;;;;13.54;100.00;101259.91;5005200;28;20488;-79
2023/03/21 01:06:43;;;;;;;3.60;2.58;;;;;;;14.31;100.00;101258.66;4998113;28;20053;-78
2023/03/21 01:09:21;;;;;;;21.30;7.65;;;;;;;12.60;100.00;101247.03;5005468;28;20070;-78
2023/03/21 01:11:52;;;;;;;21.35;7.47;;;;;;;12.19;100.00;101240.28;5003547;28;20469;-80
2023/03/21 01:14:21;;;;;;;32.25;8.30;;;;;;;12.25;100.00;101236.72;4999495;28;20146;-78
2023/03/21 01:16:51;;;;;;;23.33;6.93;;;;;;;12.25;100.00;101228.41;5001549;28;20073;-80
2023/03/21 01:19:20;;;;;;;12.98;5.25;;;;;;;11.98;100.00;101238.28;5001385;28;20058;-78
2023/03/21 01:22:03;;;;;;;12.30;3.33;;;;;;;11.99;100.00;101236.31;5002219;28;20649;-79
2023/03/21 01:24:29;;;;;;;6.97;3.05;;;;;;;11.84;100.00;101240.22;5005107;28;20045;-80
2023/03/21 01:26:57;;;;;;;12.23;4.10;;;;;;;11.90;100.00;101224.78;5006097;28;20077;-74
2023/03/21 01:29:24;;;;;;;18.88;5.78;;;;;;;11.99;100.00;101228.00;5003018;28;20045;-81
2023/03/21 01:31:50;;;;;;;6.47;3.05;;;;;;;11.87;100.00;101240.25;5002295;28;20042;-76
2023/03/21 01:34:17;;;;;;;14.05;5.53;;;;;;;12.00;100.00;101226.78;5005069;28;20157;-76
2023/03/21 01:36:43;;;;;;;18.83;3.95;;;;;;;11.89;100.00;101226.00;5006139;28;20484;-79
2023/03/21 01:39:10;;;;;;;15.95;4.88;;;;;;;12.44;100.00;101225.22;5004900;28;20054;-77
2023/03/21 01:41:39;;;;;;;15.00;5.82;;;;;;;13.84;100.00;101235.06;5005612;28;20050;-73
2023/03/21 01:44:18;;;;;;;19.00;5.18;;;;;;;11.85;100.00;101223.19;5004346;28;20073;-78
2023/03/21 01:46:51;;;;;;;6.55;2.75;;;;;;;11.86;100.00;101226.78;5003148;28;20053;-81
2023/03/21 01:49:47;;;;;;;18.27;6.40;;;;;;;11.95;100.00;101221.66;5004470;28;20104;-76
2023/03/21 01:52:19;;;;;;;11.75;4.03;;;;;;;12.08;100.00;101236.72;5005976;28;20057;-75
2023/03/21 01:55:05;;;;;;;15.93;4.72;;;;;;;12.50;100.00;101223.66;5006258;28;20049;-77
2023/03/21 01:57:41;;;;;;;21.42;7.20;;;;;;;11.76;100.00;101217.25;5004699;28;20463;-75
2023/03/21 02:00:28;;;;;;;8.93;2.97;;;;;;;11.87;100.00;101220.84;5005467;28;20060;-77
2023/03/21 02:02:56;;;;;;;10.10;3.10;;;;;;;11.74;100.00;101202.22;5003740;28;20057;-79
2023/03/21 02:05:57;;;;;;;30.83;8.63;;;;;;;13.20;100.00;101216.34;5002792;28;20132;-77
2023/03/21 02:08:25;;;;;;;6.53;2.80;;;;;;;12.96;100.00;101212.41;5000163;28;20089;-76
2023/03/21 02:11:05;;;;;;;24.10;7.07;;;;;;;12.34;100.00;101201.06;5005207;28;20054;-75
2023/03/21 02:13:32;;;;;;;10.77;3.03;;;;;;;12.68;100.00;101218.06;5006537;28;20049;-76
2023/03/21 02:16:15;;;;;;;21.73;7.35;;;;;;;12.14;100.00;101207.38;5004358;28;20056;-75
2023/03/21 02:19:01;;;;;;;22.45;9.20;;;;;;;12.10;100.00;101201.03;4998870;28;20050;-76
2023/03/21 02:22:04;;;;;;;3.80;1.50;;;;;;;13.21;100.00;101207.63;5003699;28;20068;-78
2023/03/21 02:24:43;;;;;;;19.13;7.80;;;;;;;14.10;100.00;101200.31;5005473;28;20064;-78
2023/03/21 02:27:22;;;;;;;;;;;;;;;13.36;100.00;101203.56;5006248;28;20053;-74
2023/03/21 02:30:13;;;;;;;26.13;9.18;;;;;;;12.57;100.00;101200.63;5003330;28;19925;-77
2023/03/21 02:33:00;;;;;;;27.08;8.50;;;;;;;13.91;100.00;101210.00;5000665;28;20053;-78
2023/03/21 02:35:30;;;;;;;;;;;;;;;12.77;100.00;101199.00;5006469;28;20061;-73
2023/03/21 02:38:00;;;;;;;27.65;9.63;;;;;;;13.26;100.00;101195.31;5005188;28;20019;-75
2023/03/21 02:40:42;;;;;;;15.18;5.53;;;;;;;12.77;100.00;101196.22;5012912;28;20058;-75
2023/03/21 02:43:17;;;;;;;13.23;4.13;;;;;;;14.13;100.00;101200.31;5005507;28;20087;-76
2023/03/21 02:46:07;;;;;;;8.82;4.15;;;;;;;12.60;100.00;101183.97;5005509;28;20606;-74
2023/03/21 02:48:38;;;;;;;25.58;8.43;;;;;;;13.53;100.00;101191.56;5005491;28;20144;-76
2023/03/21 02:51:19;;;;;;;26.95;4.75;;;;;;;12.46;100.00;101180.44;4997206;28;20122;-75
2023/03/21 02:53:52;;;;;;;8.75;2.90;;;;;;;11.91;100.00;101182.03;5007997;28;20724;-75
2023/03/21 02:56:40;;;;;;;14.77;6.10;;;;;;;11.72;100.00;101185.97;5008105;28;20053;-77
2023/03/21 02:59:07;;;;;;;24.10;9.23;;;;;;;11.78;100.00;101181.59;5009085;28;20054;-76
2023/03/21 03:01:34;;;;;;;8.93;3.72;;;;;;;11.72;100.00;101174.88;5006792;28;20093;-77
2023/03/21 03:04:00;;;;;;;20.63;7.22;;;;;;;12.76;100.00;101178.00;5009743;28;20050;-78
2023/03/21 03:06:40;;;;;;;15.98;6.18;;;;;;;13.52;100.00;101175.28;5009441;28;20085;-75
2023/03/21 03:09:47;;;;;;;18.92;7.78;;;;;;;13.66;100.00;101176.00;5008613;28;20136;-76
2023/03/21 03:12:33;;;;;;;18.20;7.18;;;;;;;13.32;100.00;101185.31;5001673;28;20829;-76
2023/03/21 03:15:27;;;;;;;21.95;9.10;;;;;;;13.21;100.00;101168.72;5007346;28;20060;-76
2023/03/21 03:18:26;;;;;;;9.25;4.22;;;;;;;13.80;100.00;101170.34;5009741;28;20060;-76
2023/03/21 03:21:26;;;;;;;18.85;5.68;;;;;;;11.77;100.00;101162.59;5009207;28;20046;-77
2023/03/21 03:24:22;;;;;;;31.98;9.80;;;;;;;11.70;100.00;101159.81;5006545;28;20046;-74
2023/03/21 03:26:58;;;;;;;31.42;8.93;;;;;;;11.67;100.00;101155.06;5012753;28;20050;-77
2023/03/21 03:29:27;;;;;;;26.63;8.10;;;;;;;11.80;100.00;101150.72;5008971;28;20049;-77
2023/03/21 03:32:02;;;;;;;9.73;4.40;;;;;;;11.66;100.00;101150.69;5010779;28;20100;-75
2023/03/21 03:34:33;;;;;;;26.73;10.38;;;;;;;11.67;100.00;101153.06;5009417;28;20053;-77
2023/03/21 03:37:04;;;;;;;27.08;8.63;;;;;;;12.97;100.00;101162.03;5010338;28;20061;-78
2023/03/21 03:39:42;;;;;;;15.07;5.53;;;;;;;13.99;100.00;101158.69;5009772;28;20072;-74
2023/03/21 03:42:19;;;;;;;24.13;8.60;;;;;;;12.51;100.00;101152.25;5012699;28;20068;-75
2023/03/21 03:44:55;;;;;;;31.30;12.30;;;;;;;12.50;100.00;101150.69;5005478;28;20108;-74
2023/03/21 03:47:58;;;;;;;18.02;8.13;;;;;;;13.64;100.00;101150.59;5010333;28;20049;-75
2023/03/21 03:50:36;;;;;;;26.98;9.57;;;;;;;11.89;100.00;101146.38;5009308;28;20061;-80
2023/03/21 03:53:19;;;;;;;25.77;10.27;;;;;;;11.63;100.00;101134.84;5010859;28;20050;-76
2023/03/21 03:55:48;;;;;;;27.45;10.40;;;;;;;11.64;100.00;101128.91;5006067;28;20068;-74
2023/03/21 03:58:19;;;;;;;26.80;9.32;;;;;;;11.51;100.00;101135.22;5008991;28;20622;-80
2023/03/21 04:00:51;;;;;;;29.42;11.10;;;;;;;11.57;100.00;101133.63;5004417;28;20045;-74
2023/03/21 04:03:17;;;;;;;31.17;9.25;;;;;;;12.18;100.00;101119.41;5010431;28;20081;-75
2023/03/21 04:05:47;;;;;;;27.10;11.02;;;;;;;11.59;100.00;101134.84;5008676;28;20739;-73
2023/03/21 04:08:14;;;;;;;28.75;10.65;;;;;;;11.53;100.00;101124.50;5010488;28;20046;-75
2023/03/21 04:10:41;;;;;;;25.98;10.90;;;;;;;11.69;100.00;101127.75;5008331;28;20046;-72
2023/03/21 04:13:08;;;;;;;25.08;10.93;;;;;;;13.46;100.00;101136.00;5013979;28;20049;-75
2023/03/21 04:15:35;;;;;;;27.35;9.65;;;;;;;13.47;100.00;101123.72;5006239;28;20085;-79
2023/03/21 04:18:02;;;;;;;16.40;5.25;;;;;;;13.81;100.00;101135.78;5009523;28;20052;-76
2023/03/21 04:20:28;;;;;;;31.17;12.88;;;;;;;11.72;100.00;101126.97;5009526;28;20096;-76
2023/03/21 04:23:03;;;;;;;28.23;11.60;;;;;;;11.42;100.00;101118.97;5009722;28;20053;-76
2023/03/21 04:25:33;;;;;;;18.63;8.10;;;;;;;11.72;100.00;101129.72;5006117;28;20041;-79
2023/03/21 04:28:01;;;;;;;28.10;9.88;;;;;;;11.42;100.00;101121.75;5012873;28;20038;-77
2023/03/21 04:30:28;;;;;;;26.30;9.98;;;;;;;13.21;100.00;101132.59;5010388;28;20060;-78
2023/03/21 04:32:59;;;;;;;21.38;7.25;;;;;;;11.39;100.00;101132.81;5010036;28;20560;-75
2023/03/21 04:35:27;;;;;;;26.27;9.70;;;;;;;11.33;100.00;101121.31;5022212;28;20448;-75
2023/03/21 04:37:54;;;;;;;26.25;8.88;;;;;;;11.33;100.00;101117.75;5009370;28;20133;-78
2023/03/21 04:40:21;;;;;;;25.77;10.00;;;;;;;11.40;100.00;101118.56;5009604;28;20464;-75
2023/03/21 04:42:47;;;;;;;27.80;10.45;;;;;;;11.37;100.00;101113.81;5010302;28;20053;-76
2023/03/21 04:45:15;;;;;;;27.30;10.40;;;;;;;11.38;100.00;101111.84;5010651;28;20050;-75
2023/03/21 04:47:42;;;;;;;22.52;8.90;;;;;;;11.38;100.00;101114.59;5003561;28;20510;-75
2023/03/21 04:50:09;;;;;;;28.88;9.55;;;;;;;11.39;100.00;101119.75;5009141;28;20055;-76
2023/03/21 04:52:36;;;;;;;27.10;10.38;;;;;;;11.37;100.00;101113.03;5009086;28;20089;-77
2023/03/21 04:55:03;;;;;;;27.58;10.00;;;;;;;11.40;100.00;101112.22;5009411;28;20527;-74
2023/03/21 04:57:29;;;;;;;30.33;9.52;;;;;;;11.41;100.00;101114.59;5010211;28;20053;-75
2023/03/21 04:59:56;;;;;;;27.73;9.55;;;;;;;12.65;100.00;101127.22;5008786;28;20109;-74
2023/03/21 05:02:22;;;;;;;27.48;10.23;;;;;;;11.68;100.00;101123.38;5009492;28;20050;-74
2023/03/21 05:04:49;;;;;;;28.77;10.77;;;;;;;11.63;100.00;101121.00;5008909;28;20076;-76
2023/03/21 05:07:16;;;;;;;25.08;9.95;;;;;;;12.49;100.00;101118.56;5010278;28;20530;-75
2023/03/21 05:09:42;;;;;;;27.85;10.23;;;;;;;12.65;100.00;101119.69;5007507;28;20121;-76
2023/03/21 05:12:08;;;;;;;27.45;10.63;;;;;;;12.78;100.00;101117.28;5011701;28;20073;-78
2023/03/21 05:14:35;;;;;;;26.95;9.73;;;;;;;12.35;100.00;101110.25;5009410;28;20072;-76
2023/03/21 05:17:03;;;;;;;31.50;10.18;;;;;;;11.56;100.00;101099.59;5008970;28;20516;-76
2023/03/21 05:19:34;;;;;;;24.52;10.57;;;;;;;11.50;100.00;101103.94;5008188;28;20133;-75
2023/03/21 05:22:07;;;;;;;26.63;8.63;;;;;;;11.51;100.00;101102.75;5023517;28;20822;-77
2023/03/21 05:24:36;;;;;;;26.20;11.10;;;;;;;11.45;100.00;101103.53;5008769;28;20081;-75
2023/03/21 05:27:02;;;;;;;28.92;10.98;;;;;;;11.46;100.00;101096.78;5008746;28;20050;-75
2023/03/21 05:29:31;;;;;;;23.85;9.57;;;;;;;11.45;100.00;101098.78;5008426;28;20855;-77
2023/03/21 05:31:59;;;;;;;26.10;9.68;;;;;;;12.40;100.00;101105.13;5007848;28;20081;-75
2023/03/21 05:34:27;;;;;;;29.23;10.88;;;;;;;11.52;100.00;101109.88;5008810;28;20050;-73
2023/03/21 05:36:54;;;;;;;26.83;9.63;;;;;;;13.22;100.00;101103.59;5008203;28;20072;-79
2023/03/21 05:39:20;;;;;;;26.02;9.68;;;;;;;12.98;100.00;101107.28;5008453;28;20046;-74
2023/03/21 05:41:47;;;;;;;32.88;11.45;;;;;;;12.95;100.00;101114.44;5007752;28;20459;-76
2023/03/21 05:44:13;;;;;;;27.15;10.13;;;;;;;13.60;100.00;101110.88;5008536;28;20528;-76
2023/03/21 05:46:40;;;;;;;25.73;9.20;;;;;;;11.76;100.00;101100.03;5001632;28;20079;-76
2023/03/21 05:49:06;;;;;;;25.98;9.70;;;;;;;13.59;100.00;101103.75;5008042;28;20061;-79
2023/03/21 05:51:33;;;;;;;32.50;10.40;;;;;;;11.64;100.00;101097.66;5007531;28;20778;-75
2023/03/21 05:53:59;;;;;;;23.35;8.38;;;;;;;11.53;100.00;101105.91;5008913;28;20054;-74
2023/03/21 05:56:26;;;;;;;23.20;9.82;;;;;;;11.55;100.00;101105.53;5008114;28;20046;-80
2023/03/21 05:58:52;;;;;;;24.40;8.77;;;;;;;11.48;100.00;101108.28;5004949;28;20045;-77
2023/03/21 06:01:19;;;;;;;26.83;10.05;;;;;;;11.52;100.00;101098.81;5007865;28;20053;-76
2023/03/21 06:03:45;;;;;;;27.20;10.15;;;;;;;13.27;100.00;101116.28;5006326;28;20060;-78
2023/03/21 06:06:12;;;;;;;31.30;10.20;;;;;;;11.58;100.00;101101.97;5008440;28;20598;-75
2023/03/21 06:08:39;;;;;;;28.33;10.50;;;;;;;11.49;100.00;101107.09;5006836;28;20066;-78
2023/03/21 06:11:18;;;;;;;24.20;8.63;;;;;;;11.70;100.00;101105.16;5008899;28;20057;-77
2023/03/21 06:13:44;;;;;;;26.05;8.98;;;;;;;11.33;100.00;101106.66;5006676;28;20042;-81
2023/03/21 06:16:11;;;;;;;25.65;9.10;;;;;;;11.29;100.00;101108.63;5007992;28;20053;-77
2023/03/21 06:18:38;;;;;;;32.00;10.85;;;;;;;11.33;100.00;101103.91;5008090;28;20081;-76
2023/03/21 06:21:04;;;;;;;28.77;10.75;;;;;;;13.33;100.00;101118.22;5009522;28;20421;-77
2023/03/21 06:23:31;;;;;;;30.45;11.57;;;;;;;13.50;100.00;101127.66;5009339;28;20061;-76
2023/03/21 06:25:58;;;;;;;36.30;10.98;;;;;;;13.49;100.00;101117.72;5008236;28;20057;-74
2023/03/21 06:28:24;;;;;;;25.83;9.90;;;;;;;13.41;100.00;101114.22;5007550;28;20479;-75
2023/03/21 06:30:51;;;;;;;27.60;10.50;;;;;;;13.44;100.00;101112.59;5008190;28;20060;-74
2023/03/21 06:33:17;;;;;;;27.67;10.27;;;;;;;13.48;100.00;101119.72;5012375;28;20050;-75
2023/03/21 06:35:50;;;;;;;29.15;10.27;;;;;;;13.39;100.00;101110.28;5008884;28;20054;-75
2023/03/21 06:38:16;;;;;;;32.88;11.40;;;;;;;13.61;100.00;101114.47;5008111;28;20054;-76
2023/03/21 06:40:45;;;;;;;29.55;11.80;;;;;;;13.58;100.00;101107.75;5003309;28;20046;-75
2023/03/21 06:43:13;;;;;;;33.03;12.45;;;;;;;13.65;100.00;101107.69;5005752;28;20050;-74
2023/03/21 06:45:39;;;;;;;30.90;11.85;;;;;;;13.71;100.00;101099.69;5011140;28;20065;-78
2023/03/21 06:48:06;;;;;;;30.00;11.02;;;;;;;12.43;100.00;101097.97;5010690;28;20045;-75
2023/03/21 06:50:34;;;;;;;30.05;12.77;;;;;;;13.67;100.00;101102.50;5007207;28;20507;-76
2023/03/21 06:53:01;;;;;;;31.73;13.02;;;;;;;13.74;100.00;101105.22;5006265;28;20054;-76
2023/03/21 06:55:28;;;;;;;29.67;11.73;;;;;;;13.63;100.00;101098.19;5007563;28;20424;-74
2023/03/21 06:57:56;;;;;;;30.75;12.65;;;;;;;11.70;100.00;101098.81;5006883;28;20045;-76
2023/03/21 07:00:23;;;;;;;30.48;12.40;;;;;;;13.21;100.00;101107.59;5006672;28;20459;-74
2023/03/21 07:02:50;;;;;;;32.38;14.40;;;;;;;13.61;100.00;101104.16;5007213;28;20054;-75
2023/03/21 07:05:17;;;;;;;28.17;12.18;;;;;;;13.75;100.00;101106.81;5008119;28;20136;-73
2023/03/21 07:07:43;;;;;;;31.58;11.95;;;;;;;13.70;100.00;101104.47;5007579;28;20524;-74
2023/03/21 07:10:10;;;;;;;33.05;11.77;;;;;;;13.68;100.00;101098.53;5008167;28;20104;-74
2023/03/21 07:12:37;;;;;;;28.15;12.00;;;;;;;13.54;100.00;101093.09;5008275;28;20052;-75
2023/03/21 07:15:06;;;;;;;34.20;13.30;;;;;;;12.98;100.00;101101.72;5003592;28;20067;-76
2023/03/21 07:17:33;;;;;;;30.25;11.93;;;;;;;13.74;100.00;101115.56;5004770;28;20121;-74
2023/03/21 07:19:59;;;;;;;28.90;11.60;;;;;;;13.64;100.00;101106.13;5006933;28;20053;-75
2023/03/21 07:22:26;;;;;;;29.80;11.60;;;;;;;13.50;100.00;101110.97;5005964;28;20050;-75
2023/03/21 07:24:52;;;;;;;24.25;10.93;;;;;;;13.02;100.00;101108.06;5007891;28;20077;-75
2023/03/21 07:27:30;;;;;;;25.20;10.27;;;;;;;13.21;100.00;101107.59;5007072;28;20046;-75
2023/03/21 07:29:57;;;;;;;27.48;10.90;;;;;;;13.49;100.00;101115.75;5005592;28;20101;-77
2023/03/21 07:32:28;;;;;;;21.15;8.98;;;;;;;13.38;100.00;101114.22;5006744;28;20045;-76
2023/03/21 07:34:55;;;;;;;29.48;10.10;;;;;;;11.72;100.00;101113.91;5007148;28;20046;-76
2023/03/21 07:37:22;;;;;;;16.02;5.15;;;;;;;11.66;100.00;101115.47;5007269;28;20073;-74
2023/03/21 07:39:50;;;;;;;25.33;8.75;;;;;;;11.54;100.00;101112.25;5010230;28;20104;-75
2023/03/21 07:42:17;;;;;;;20.02;6.15;;;;;;;11.58;100.00;101110.28;5010464;28;20054;-76
2023/03/21 07:44:44;;;;;;;20.20;7.95;;;;;;;11.63;100.00;101105.16;5002193;28;20053;-75
2023/03/21 07:47:10;;;;;;;7.10;2.72;;;;;;;11.65;100.00;101104.78;5009514;28;20041;-75
2023/03/21 07:49:37;;;;;;;24.02;8.40;;;;;;;11.66;100.00;101109.13;5011259;28;20046;-76
2023/03/21 07:52:05;;;;;;;12.35;3.80;;;;;;;12.06;100.00;101105.97;5009818;28;20050;-76
2023/03/21 07:54:32;;;;;;;26.48;8.13;;;;;;;13.32;100.00;101099.97;5010798;28;20053;-77
2023/03/21 07:56:58;;;;;;;12.43;4.10;;;;;;;12.87;100.00;101103.75;5011285;28;20083;-74
2023/03/21 07:59:25;;;;;;;24.35;7.97;;;;;;;14.03;100.00;101112.13;5008411;28;20092;-76
2023/03/21 08:01:52;;;;;;;24.10;8.73;;;;;;;13.96;100.00;101114.19;5010304;28;20056;-76
2023/03/21 08:04:18;;;;;;;24.05;8.15;;;;;;;14.19;100.00;101117.97;5011282;28;20415;-78
2023/03/21 08:06:45;;;;;;;10.00;3.17;;;;;;;14.33;100.00;101120.63;5009213;28;20042;-77
2023/03/21 08:09:11;;;;;;;30.45;7.28;;;;;;;14.47;100.00;101114.13;5010586;28;20121;-77
2023/03/21 08:11:39;;;;;;;8.75;2.15;;;;;;;14.29;100.00;101121.88;5008084;28;20057;-73
2023/03/21 08:14:06;;;;;;;21.83;7.97;;;;;;;14.45;100.00;101106.19;5008235;28;20092;-70
2023/03/21 08:16:32;;;;;;;2.60;1.45;;;;;;;14.17;100.00;101114.78;5007430;28;20053;-74
2023/03/21 08:18:59;;;;;;;25.05;7.88;;;;;;;12.61;100.00;101096.72;4999137;28;20058;-73
2023/03/21 08:21:26;;;;;;;10.80;4.78;;;;;;;14.32;100.00;101107.13;5006563;28;20192;-73
2023/03/21 08:23:53;;;;;;;14.45;5.25;;;;;;;14.44;100.00;101098.22;5005058;28;20550;-72
2023/03/21 08:26:20;;;;;;;20.63;7.93;;;;;;;14.29;100.00;101100.41;5009505;28;20057;-72
2023/03/21 08:28:46;;;;;;;11.63;3.97;;;;;;;14.08;100.00;101103.38;5008536;28;20184;-71
2023/03/21 08:31:13;;;;;;;17.17;5.47;;;;;;;14.14;100.00;101090.56;5009204;28;20049;-71
2023/03/21 08:33:40;;;;;;;22.98;9.82;;;;;;;14.72;100.00;101087.56;5007423;28;20046;-70
2023/03/21 08:36:07;;;;;;;30.02;7.70;;;;;;;14.84;100.00;101087.03;5009673;28;20129;-70
2023/03/21 08:38:34;;;;;;;26.35;9.40;;;;;;;14.60;100.00;101093.69;5008593;28;20057;-70
2023/03/21 08:41:01;;;;;;;23.73;9.07;;;;;;;14.57;100.00;101088.94;5006502;28;20050;-72
2023/03/21 08:43:28;;;;;;;21.10;6.60;;;;;;;14.55;100.00;101098.94;5009307;28;20049;-70
2023/03/21 08:45:55;;;;;;;17.60;5.47;;;;;;;14.91;100.00;101094.50;5008006;28;20119;-71
2023/03/21 08:48:22;;;;;;;6.90;3.15;;;;;;;14.89;100.00;101094.91;5007992;28;20064;-72
2023/03/21 08:50:49;;;;;;;19.95;7.32;;;;;;;15.09;100.00;101097.88;5008509;28;20073;-71
2023/03/21 08:53:15;;;;;;;15.02;5.75;;;;;;;15.17;100.00;101099.34;5007714;28;20077;-74
2023/03/21 08:55:43;;;;;;;23.80;7.07;;;;;;;15.03;100.00;101097.53;5006650;28;20052;-70
2023/03/21 08:58:10;;;;;;;20.52;7.80;;;;;;;13.86;100.00;101093.63;5007814;28;20060;-74
2023/03/21 09:00:36;;;;;;;20.27;6.70;;;;;;;13.91;100.00;101101.50;5009498;28;20152;-73
2023/03/21 09:03:03;;;;;;;8.77;3.30;;;;;;;14.80;100.00;101102.19;5012793;28;20152;-71
2023/03/21 09:05:30;;;;;;;17.55;6.38;;;;;;;14.44;100.00;101099.03;5009005;28;20046;-70
2023/03/21 09:07:57;;;;;;;20.05;6.43;;;;;;;15.10;100.00;101100.22;5008674;28;20103;-69
2023/03/21 09:10:23;;;;;;;19.83;6.70;;;;;;;15.15;100.00;101098.94;5009470;28;20129;-71
2023/03/21 09:12:52;;;;;;;10.18;3.67;;;;;;;14.94;100.00;101104.81;5002548;28;20050;-73
2023/03/21 09:15:20;;;;;;;23.25;8.40;;;;;;;15.17;100.00;101097.34;5012821;28;20060;-71
2023/03/21 09:17:51;;;;;;;14.90;4.85;;;;;;;13.62;100.00;101102.94;5007743;28;20073;-70
2023/03/21 09:20:29;;;;;;;21.10;7.80;;;;;;;14.59;100.00;101096.88;5008286;28;20825;-70
2023/03/21 09:22:57;;;;;;;17.40;6.57;;;;;;;15.03;100.00;101094.75;5006006;28;20134;-74
2023/03/21 09:25:29;;;;;;;11.98;5.07;;;;;;;12.84;100.00;101099.81;5005136;28;20054;-70
2023/03/21 09:27:57;;;;;;;18.95;6.47;;;;;;;13.66;100.00;101098.16;5007007;28;20049;-70
2023/03/21 09:30:24;;;;;;;11.90;4.32;;;;;;;15.25;100.00;101101.59;5007391;28;20041;-71
2023/03/21 09:32:54;;;;;;;16.33;5.80;;;;;;;15.25;100.00;101103.59;5006953;28;20128;-69
2023/03/21 09:35:21;;;;;;;9.82;2.88;;;;;;;12.96;100.00;101104.09;5004766;28;20107;-72
2023/03/21 09:37:48;;;;;;;13.35;2.65;;;;;;;12.97;100.00;101100.16;5005011;28;20133;-70
2023/03/21 09:40:57;;;;;;;10.30;3.88;;;;;;;15.38;100.00;101108.22;5006596;28;20041;-74
2023/03/21 09:44:02;;;;;;;14.38;5.18;;;;;;;12.73;100.00;101106.59;5004821;28;20045;-71
2023/03/21 09:46:53;;;;;;;13.88;5.82;;;;;;;14.13;100.00;101102.09;5005741;28;20439;-70
2023/03/21 09:49:30;;;;;;;15.30;5.70;;;;;;;13.91;100.00;101107.06;5005106;28;20128;-70
2023/03/21 09:52:04;;;;;;;15.57;4.57;;;;;;;12.62;100.00;101103.03;5003752;28;20050;-73
2023/03/21 09:54:42;;;;;;;16.30;5.05;;;;;;;13.62;100.00;101102.94;5019407;28;20050;-69
2023/03/21 09:57:35;;;;;;;20.55;7.95;;;;;;;15.04;100.00;101110.25;5004677;28;20062;-71
2023/03/21 10:00:13;;;;;;;17.30;5.55;;;;;;;14.88;100.00;101098.91;5004065;28;20124;-73
2023/03/21 10:02:45;;;;;;;23.75;7.55;;;;;;;12.69;100.00;101097.50;5006423;28;20752;-74
2023/03/21 10:05:24;;;;;;;18.77;4.93;;;;;;;13.04;100.00;101094.56;5006780;28;20081;-69
2023/03/21 10:08:06;;;;;;;15.55;2.70;;;;;;;12.60;100.00;101092.38;5006610;28;20145;-70
2023/03/21 10:10:46;;;;;;;2.30;1.27;;;;;;;14.40;100.00;101091.91;5003316;28;20045;-70
2023/03/21 10:13:22;;;;;;;3.53;2.22;;;;;;;12.81;100.00;101091.47;5007989;28;20067;-70
2023/03/21 10:15:49;;;;;;;10.55;3.08;;;;;;;14.85;100.00;101088.59;5003984;28;20134;-73
2023/03/21 10:18:23;;;;;;;18.15;6.78;;;;;;;15.50;100.00;101084.53;5004662;28;20049;-71
2023/03/21 10:20:51;;;;;;;10.20;3.43;;;;;;;12.82;100.00;101071.63;5003519;28;20038;-71
2023/03/21 10:23:21;;;;;;;20.25;7.15;;;;;;;13.65;100.00;101079.88;5003415;28;20309;-70
2023/03/21 10:25:53;;;;;;;23.15;7.38;;;;;;;13.10;100.00;101073.53;4980737;28;20151;-74
2023/03/21 10:28:26;;;;;;;17.63;8.02;;;;;;;13.97;100.00;101080.38;5002993;28;20077;-70
2023/03/21 10:31:01;;;;;;;18.55;7.25;;;;;;;13.10;100.00;101073.53;5004427;28;20052;-71
2023/03/21 10:33:37;;;;;;;5.13;2.50;;;;;;;13.53;100.00;101074.81;4993826;28;20050;-73
2023/03/21 10:36:10;;;;;;;20.27;7.45;;;;;;;13.21;100.00;101073.44;4990443;28;20064;-71
2023/03/21 10:38:42;;;;;;;9.40;2.45;;;;;;;13.57;100.00;101069.22;5007005;28;20046;-73
2023/03/21 10:41:10;;;;;;;19.38;7.00;;;;;;;13.99;100.00;101066.88;4991410;28;20607;-75
2023/03/21 10:43:39;;;;;;;20.75;7.47;;;;;;;15.54;100.00;101060.16;4989200;28;20053;-71
2023/03/21 10:46:17;;;;;;;6.97;2.70;;;;;;;15.02;100.00;101065.28;5006467;28;20060;-70
2023/03/21 10:48:51;;;;;;;11.75;4.25;;;;;;;15.60;100.00;101058.50;4994188;28;20053;-72
2023/03/21 10:51:26;;;;;;;15.38;4.15;;;;;;;15.60;100.00;101058.50;4990145;28;20054;-71
2023/03/21 10:53:56;;;;;;;20.90;3.15;;;;;;;15.44;100.00;101056.34;4992053;28;20058;-72
2023/03/21 10:56:28;;;;;;;11.23;4.00;;;;;;;13.94;100.00;101052.63;4991845;28;20045;-75
2023/03/21 10:59:00;;;;;;;7.30;2.55;;;;;;;13.24;100.00;101042.88;4992253;28;20054;-71
2023/03/21 11:01:40;;;;;;;4.85;2.25;;;;;;;13.17;100.00;101042.91;4991942;28;20050;-74
2023/03/21 11:04:08;;;;;;;7.45;2.58;;;;;;;13.75;100.00;101028.16;4994451;28;20061;-73
2023/03/21 11:06:39;;;;;;;9.45;2.92;;;;;;;12.96;100.00;101026.31;4990244;28;20058;-70
2023/03/21 11:09:11;;;;;;;4.65;1.60;;;;;;;12.92;100.00;101031.13;4993842;28;20073;-71
2023/03/21 11:12:09;;;;;;;21.13;6.07;;;;;;;12.90;100.00;101030.75;4990628;28;20050;-73
2023/03/21 11:14:42;;;;;;;9.23;2.55;;;;;;;12.85;100.00;101020.84;4995821;28;20487;-74
2023/03/21 11:17:21;;;;;;;6.43;2.95;;;;;;;12.89;100.00;101018.03;5011258;28;20082;-70
2023/03/21 11:19:48;;;;;;;12.15;2.70;;;;;;;12.75;100.00;101012.56;5009760;28;20129;-70
2023/03/21 11:22:17;;;;;;;18.90;5.72;;;;;;;12.90;100.00;101003.75;5006125;28;20056;-71
2023/03/21 11:24:50;;;;;;;13.90;4.80;;;;;;;12.89;100.00;100993.03;5004745;28;20084;-71
2023/03/21 11:27:17;;;;;;;18.23;4.88;;;;;;;13.03;100.00;100990.22;4998355;28;20114;-73
2023/03/21 11:29:50;;;;;;;14.65;5.53;;;;;;;12.89;100.00;100988.28;4998982;28;20856;-75